createdAt,value
2022-07-29T00:00:37.981Z,5.60
2022-07-29T00:03:06.714Z,9.20
2022-07-29T00:05:35.307Z,9.97
2022-07-29T00:08:03.793Z,5.80
2022-07-29T00:10:32.352Z,7.17
2022-07-29T00:13:00.882Z,7.00
2022-07-29T00:15:30.898Z,6.40
2022-07-29T00:17:59.383Z,6.33
2022-07-29T00:20:27.883Z,5.83
2022-07-29T00:22:56.449Z,5.47
2022-07-29T00:25:25.138Z,6.17
2022-07-29T00:27:53.580Z,10.60
2022-07-29T00:30:22.216Z,6.20
2022-07-29T00:32:52.135Z,5.73
2022-07-29T00:35:38.147Z,5.70
2022-07-29T00:38:06.687Z,5.73
2022-07-29T00:40:35.183Z,5.23
2022-07-29T00:43:04.818Z,5.33
2022-07-29T00:45:33.535Z,5.10
2022-07-29T00:48:04.381Z,5.20
2022-07-29T00:50:33.746Z,5.30
2022-07-29T00:53:03.203Z,6.00
2022-07-29T00:55:32.149Z,5.67
2022-07-29T00:58:01.512Z,6.10
2022-07-29T01:00:31.335Z,7.73
2022-07-29T01:02:59.971Z,11.50
2022-07-29T01:05:50.913Z,6.20
2022-07-29T01:08:20.751Z,7.00
2022-07-29T01:10:49.933Z,6.63
2022-07-29T01:13:19.471Z,4.87
2022-07-29T01:15:54.008Z,6.70
2022-07-29T01:18:30.454Z,4.80
2022-07-29T01:21:31.589Z,5.23
2022-07-29T01:24:17.536Z,5.47
2022-07-29T01:26:51.331Z,5.40
2022-07-29T01:29:31.008Z,4.87
2022-07-29T01:32:22.551Z,5.43
2022-07-29T01:35:00.716Z,6.23
2022-07-29T01:37:35.062Z,4.93
2022-07-29T01:40:05.580Z,4.83
2022-07-29T01:42:38.899Z,4.90
2022-07-29T01:45:16.238Z,5.13
2022-07-29T01:47:56.586Z,6.37
2022-07-29T01:50:31.674Z,7.03
2022-07-29T01:53:02.832Z,6.20
2022-07-29T01:55:34.497Z,5.63
2022-07-29T01:58:05.273Z,5.03
2022-07-29T02:00:36.869Z,11.27
2022-07-29T02:03:09.675Z,10.80
2022-07-29T02:05:40.077Z,4.43
2022-07-29T02:08:10.453Z,4.37
2022-07-29T02:10:40.729Z,5.37
2022-07-29T02:13:11.880Z,4.47
2022-07-29T02:15:43.466Z,4.40
2022-07-29T02:18:17.922Z,6.20
2022-07-29T02:20:49.859Z,5.07
2022-07-29T02:23:21.654Z,4.93
2022-07-29T02:25:51.431Z,4.40
2022-07-29T02:28:22.726Z,4.77
2022-07-29T02:30:55.602Z,4.20
2022-07-29T02:33:25.990Z,4.50
2022-07-29T02:35:55.224Z,4.33
2022-07-29T02:38:43.577Z,4.40
2022-07-29T02:41:15.729Z,4.80
2022-07-29T02:43:45.783Z,4.77
2022-07-29T02:46:28.767Z,4.37
2022-07-29T02:49:04.276Z,4.73
2022-07-29T02:51:44.539Z,4.97
2022-07-29T02:54:22.460Z,4.93
2022-07-29T02:56:56.485Z,8.07
2022-07-29T02:59:29.238Z,4.90
2022-07-29T03:02:01.246Z,5.23
2022-07-29T03:04:30.598Z,4.97
2022-07-29T03:07:01.530Z,4.50
2022-07-29T03:09:31.084Z,7.10
2022-07-29T03:11:59.840Z,4.53
2022-07-29T03:14:29.279Z,4.73
2022-07-29T03:16:59.570Z,4.30
2022-07-29T03:19:29.373Z,3.97
2022-07-29T03:21:59.363Z,6.03
2022-07-29T03:24:32.751Z,4.37
2022-07-29T03:27:02.431Z,5.10
2022-07-29T03:29:33.576Z,5.07
2022-07-29T03:32:07.994Z,4.27
2022-07-29T03:34:39.142Z,4.77
2022-07-29T03:37:08.597Z,4.70
2022-07-29T03:39:41.947Z,5.13
2022-07-29T03:42:15.217Z,4.33
2022-07-29T03:44:46.004Z,4.60
2022-07-29T03:47:17.156Z,4.57
2022-07-29T03:49:48.768Z,4.97
2022-07-29T03:52:17.638Z,4.63
2022-07-29T03:54:46.346Z,4.67
2022-07-29T03:57:17.072Z,5.07
2022-07-29T03:59:46.318Z,4.40
2022-07-29T04:02:20.171Z,4.70
2022-07-29T04:04:51.840Z,10.20
2022-07-29T04:07:20.450Z,9.00
2022-07-29T04:09:49.013Z,5.60
2022-07-29T04:12:17.499Z,5.17
2022-07-29T04:14:46.072Z,5.50
2022-07-29T04:17:15.963Z,4.83
2022-07-29T04:19:44.476Z,4.17
2022-07-29T04:22:12.932Z,4.50
2022-07-29T04:24:44.318Z,4.80
2022-07-29T04:27:13.214Z,4.50
2022-07-29T04:29:56.225Z,5.20
2022-07-29T04:32:27.604Z,6.37
2022-07-29T04:34:56.096Z,5.43
2022-07-29T04:37:24.675Z,5.10
2022-07-29T04:39:53.207Z,4.43
2022-07-29T04:42:27.608Z,4.83
2022-07-29T04:44:57.796Z,5.37
2022-07-29T04:47:31.318Z,4.87
2022-07-29T04:49:59.848Z,4.73
2022-07-29T04:52:28.537Z,4.63
2022-07-29T04:54:57.011Z,5.13
2022-07-29T04:57:26.312Z,14.33
2022-07-29T04:59:55.330Z,6.23
2022-07-29T05:02:24.093Z,4.90
2022-07-29T05:04:54.083Z,6.10
2022-07-29T05:07:22.642Z,4.50
2022-07-29T05:09:51.130Z,6.40
2022-07-29T05:12:19.702Z,10.53
2022-07-29T05:14:48.132Z,7.70
2022-07-29T05:17:16.666Z,6.00
2022-07-29T05:19:45.200Z,4.43
2022-07-29T05:22:15.235Z,4.83
2022-07-29T05:24:43.705Z,5.13
2022-07-29T05:27:12.269Z,10.67
2022-07-29T05:29:43.907Z,5.33
2022-07-29T05:32:14.715Z,5.83
2022-07-29T05:34:51.439Z,5.30
2022-07-29T05:37:22.091Z,5.67
2022-07-29T05:39:56.602Z,6.70
2022-07-29T05:42:26.047Z,6.43
2022-07-29T05:44:54.569Z,5.00
2022-07-29T05:47:23.272Z,4.00
2022-07-29T05:49:52.623Z,5.97
2022-07-29T05:52:23.344Z,5.20
2022-07-29T05:54:52.942Z,5.37
2022-07-29T05:57:22.937Z,4.30
2022-07-29T05:59:52.799Z,7.50
2022-07-29T06:02:21.494Z,6.63
2022-07-29T06:04:50.501Z,5.77
2022-07-29T06:07:19.014Z,5.83
2022-07-29T06:09:48.932Z,4.20
2022-07-29T06:12:17.492Z,7.70
2022-07-29T06:14:46.174Z,4.00
2022-07-29T06:17:18.901Z,4.93
2022-07-29T06:19:47.412Z,5.27
2022-07-29T06:22:18.291Z,5.87
2022-07-29T06:24:48.184Z,5.10
2022-07-29T06:27:17.343Z,5.77
2022-07-29T06:29:45.858Z,5.68
2022-07-29T06:32:15.119Z,6.37
2022-07-29T06:34:43.671Z,7.13
2022-07-29T06:37:18.723Z,6.22
2022-07-29T06:39:49.196Z,6.50
2022-07-29T06:42:17.702Z,5.82
2022-07-29T06:44:46.182Z,6.40
2022-07-29T06:47:15.006Z,6.63
2022-07-29T06:49:43.570Z,6.95
2022-07-29T06:52:12.050Z,11.80
2022-07-29T06:54:40.955Z,12.52
2022-07-29T06:57:10.841Z,7.25
2022-07-29T06:59:39.488Z,5.90
2022-07-29T07:02:08.011Z,7.03
2022-07-29T07:04:36.526Z,5.20
2022-07-29T07:07:05.013Z,5.70
2022-07-29T07:09:40.016Z,5.10
2022-07-29T07:12:11.159Z,4.75
2022-07-29T07:14:40.799Z,4.63
2022-07-29T07:17:09.541Z,6.20
2022-07-29T07:19:38.096Z,4.60
2022-07-29T07:22:06.593Z,5.43
2022-07-29T07:24:36.860Z,4.80
2022-07-29T07:27:10.298Z,6.13
2022-07-29T07:29:44.246Z,6.63
2022-07-29T07:32:14.348Z,7.38
2022-07-29T07:34:42.999Z,7.20
2022-07-29T07:37:11.503Z,5.25
2022-07-29T07:39:40.029Z,5.07
2022-07-29T07:42:08.649Z,4.70
2022-07-29T07:44:57.267Z,5.80
2022-07-29T07:47:28.049Z,4.70
2022-07-29T07:49:57.224Z,5.53
2022-07-29T07:52:25.795Z,6.32
2022-07-29T07:54:54.315Z,7.03
2022-07-29T07:57:22.890Z,7.55
2022-07-29T07:59:52.745Z,6.90
2022-07-29T08:02:21.349Z,4.80
2022-07-29T08:04:49.846Z,5.03
2022-07-29T08:07:18.435Z,7.10
2022-07-29T08:09:46.997Z,6.40
2022-07-29T08:12:15.528Z,5.22
2022-07-29T08:14:44.014Z,4.75
2022-07-29T08:17:13.855Z,4.93
2022-07-29T08:19:42.341Z,4.90
2022-07-29T08:22:11.065Z,4.90
2022-07-29T08:24:45.302Z,5.15
2022-07-29T08:27:40.860Z,4.75
2022-07-29T08:30:02.998Z,4.65
2022-07-29T08:32:52.533Z,4.93
2022-07-29T08:35:21.859Z,5.15
2022-07-29T08:37:50.448Z,8.80
2022-07-29T08:40:19.090Z,6.47
2022-07-29T08:42:47.743Z,5.43
2022-07-29T08:45:17.072Z,5.05
2022-07-29T08:47:47.578Z,4.80
2022-07-29T08:50:16.144Z,5.53
2022-07-29T08:52:45.230Z,5.25
2022-07-29T08:55:14.644Z,5.43
2022-07-29T08:57:52.007Z,5.20
2022-07-29T09:00:24.915Z,5.07
2022-07-29T09:03:00.237Z,4.40
2022-07-29T09:05:29.751Z,4.82
2022-07-29T09:07:58.433Z,5.07
2022-07-29T09:10:27.209Z,4.63
2022-07-29T09:12:57.118Z,4.75
2022-07-29T09:15:26.730Z,3.90
2022-07-29T09:17:57.746Z,4.18
2022-07-29T09:20:26.805Z,3.55
2022-07-29T09:22:55.961Z,3.70
2022-07-29T09:25:36.982Z,4.38
2022-07-29T09:28:10.016Z,4.25
2022-07-29T09:30:41.574Z,4.70
2022-07-29T09:33:11.510Z,4.70
2022-07-29T09:35:40.419Z,4.93
2022-07-29T09:38:15.684Z,4.30
2022-07-29T09:40:57.816Z,4.40
2022-07-29T09:43:31.610Z,6.68
2022-07-29T09:46:13.061Z,3.90
2022-07-29T09:48:43.138Z,4.10
2022-07-29T09:51:23.004Z,3.83
2022-07-29T09:53:55.638Z,4.63
2022-07-29T09:56:40.855Z,3.92
2022-07-29T09:59:10.250Z,4.53
2022-07-29T10:01:38.737Z,3.95
2022-07-29T10:04:08.779Z,4.07
2022-07-29T10:06:37.352Z,4.53
2022-07-29T10:09:12.410Z,3.95
2022-07-29T10:11:56.954Z,4.60
2022-07-29T10:14:25.966Z,3.80
2022-07-29T10:16:55.036Z,5.78
2022-07-29T10:19:25.495Z,4.15
2022-07-29T10:21:58.021Z,5.28
2022-07-29T10:24:28.394Z,4.78
2022-07-29T10:26:58.107Z,3.50
2022-07-29T10:29:26.967Z,4.45
2022-07-29T10:32:17.560Z,4.35
2022-07-29T10:35:02.559Z,3.90
2022-07-29T10:37:45.709Z,4.15
2022-07-29T10:40:42.276Z,4.30
2022-07-29T10:43:21.817Z,3.33
2022-07-29T10:45:52.077Z,4.10
2022-07-29T10:48:21.308Z,3.60
2022-07-29T10:50:58.277Z,3.40
2022-07-29T10:53:47.273Z,3.50
2022-07-29T10:56:27.418Z,3.80
2022-07-29T10:59:32.350Z,4.15
2022-07-29T11:02:42.100Z,4.65
2022-07-29T11:05:14.294Z,3.83
2022-07-29T11:08:26.112Z,4.18
2022-07-29T11:11:11.049Z,3.80
2022-07-29T11:13:51.233Z,3.85
2022-07-29T11:16:25.167Z,4.13
2022-07-29T11:19:29.944Z,4.38
2022-07-29T11:21:59.959Z,4.53
2022-07-29T11:24:32.400Z,3.67
2022-07-29T11:27:20.040Z,3.58
2022-07-29T11:29:54.370Z,4.60
2022-07-29T11:32:25.012Z,4.07
2022-07-29T11:35:18.997Z,4.38
2022-07-29T11:40:38.872Z,5.05
2022-07-29T11:43:11.301Z,4.63
2022-07-29T11:45:48.567Z,3.70
2022-07-29T11:48:29.147Z,3.60
2022-07-29T11:51:00.261Z,3.05
2022-07-29T11:53:32.803Z,3.42
2022-07-29T11:56:03.893Z,3.00
2022-07-29T11:58:33.822Z,4.97
2022-07-29T12:01:05.008Z,3.00
2022-07-29T12:03:36.869Z,2.72
2022-07-29T12:06:14.109Z,3.47
2022-07-29T12:08:45.284Z,3.58
2022-07-29T12:11:23.262Z,3.50
2022-07-29T12:13:53.067Z,3.22
2022-07-29T12:16:25.470Z,2.95
2022-07-29T12:18:59.919Z,2.80
2022-07-29T12:21:29.320Z,3.78
2022-07-29T12:24:05.476Z,2.90
2022-07-29T12:26:51.023Z,2.47
2022-07-29T12:29:33.793Z,3.22
2022-07-29T12:32:05.252Z,2.58
2022-07-29T12:34:35.026Z,3.00
2022-07-29T12:37:04.247Z,2.90
2022-07-29T12:39:32.940Z,2.70
2022-07-29T12:42:14.798Z,2.90
2022-07-29T12:44:47.592Z,2.90
2022-07-29T12:47:16.220Z,3.38
2022-07-29T12:49:44.700Z,2.92
2022-07-29T12:52:37.526Z,3.08
2022-07-29T12:55:06.914Z,3.08
2022-07-29T12:57:47.554Z,4.03
2022-07-29T13:00:17.519Z,3.03
2022-07-29T13:02:46.362Z,3.20
2022-07-29T13:05:14.920Z,2.97
2022-07-29T13:07:55.724Z,3.28
2022-07-29T13:10:27.077Z,3.60
2022-07-29T13:13:09.074Z,3.38
2022-07-29T13:15:39.010Z,3.25
2022-07-29T13:18:28.013Z,3.30
2022-07-29T13:20:56.750Z,4.10
2022-07-29T13:23:25.272Z,4.45
2022-07-29T13:25:54.739Z,3.60
2022-07-29T13:28:25.179Z,3.85
2022-07-29T13:30:53.694Z,4.05
2022-07-29T13:33:22.169Z,4.85
2022-07-29T13:35:50.691Z,3.90
2022-07-29T13:38:19.302Z,3.58
2022-07-29T13:40:47.860Z,3.92
2022-07-29T13:43:16.493Z,4.05
2022-07-29T13:45:46.392Z,4.10
2022-07-29T13:48:14.923Z,3.53
2022-07-29T13:50:43.457Z,3.95
2022-07-29T13:53:17.738Z,3.75
2022-07-29T13:55:47.319Z,3.92
2022-07-29T13:58:16.993Z,3.80
2022-07-29T14:00:47.710Z,4.05
2022-07-29T14:03:16.169Z,3.90
2022-07-29T14:05:44.910Z,3.78
2022-07-29T14:08:13.868Z,4.82
2022-07-29T14:10:42.319Z,5.47
2022-07-29T14:13:24.346Z,4.97
2022-07-29T14:15:55.804Z,4.20
2022-07-29T14:18:24.266Z,4.22
2022-07-29T14:20:52.970Z,4.20
2022-07-29T14:23:21.828Z,5.88
2022-07-29T14:25:50.704Z,4.30
2022-07-29T14:28:19.754Z,4.30
2022-07-29T14:30:48.360Z,4.10
2022-07-29T14:33:18.301Z,3.92
2022-07-29T14:35:47.521Z,3.55
2022-07-29T14:38:16.065Z,3.70
2022-07-29T14:40:44.707Z,7.20
2022-07-29T14:43:13.188Z,4.00
2022-07-29T14:45:41.797Z,3.80
2022-07-29T14:48:10.258Z,3.95
2022-07-29T14:50:40.418Z,4.25
2022-07-29T14:53:09.044Z,3.47
2022-07-29T14:55:37.617Z,3.80
2022-07-29T14:58:12.115Z,4.40
2022-07-29T15:00:43.344Z,3.90
2022-07-29T15:03:11.894Z,5.95
2022-07-29T15:05:42.110Z,4.18
2022-07-29T15:08:10.601Z,4.40
2022-07-29T15:10:39.066Z,3.80
2022-07-29T15:13:07.541Z,3.60
2022-07-29T15:15:35.978Z,3.90
2022-07-29T15:18:04.525Z,3.90
2022-07-29T15:20:33.143Z,4.50
2022-07-29T15:23:03.132Z,4.40
2022-07-29T15:25:31.687Z,5.10
2022-07-29T15:28:03.255Z,4.25
2022-07-29T15:30:34.628Z,3.97
2022-07-29T15:33:04.744Z,4.78
2022-07-29T15:35:33.408Z,3.70
2022-07-29T15:38:10.691Z,4.15
2022-07-29T15:40:41.258Z,4.50
2022-07-29T15:43:09.961Z,3.97
2022-07-29T15:45:40.419Z,4.30
2022-07-29T15:48:13.282Z,3.90
2022-07-29T15:50:47.031Z,4.50
2022-07-29T15:53:17.159Z,4.45
2022-07-29T15:55:46.057Z,4.25
2022-07-29T15:58:14.593Z,4.80
2022-07-29T16:00:43.094Z,5.35
2022-07-29T16:03:11.585Z,4.57
2022-07-29T16:05:40.087Z,4.15
2022-07-29T16:08:08.593Z,4.50
2022-07-29T16:10:38.431Z,4.40
2022-07-29T16:13:06.962Z,4.22
2022-07-29T16:15:35.545Z,3.60
2022-07-29T16:18:04.031Z,4.07
2022-07-29T16:20:36.506Z,4.30
2022-07-29T16:23:05.550Z,3.90
2022-07-29T16:25:58.637Z,9.18
2022-07-29T16:28:24.005Z,4.30
2022-07-29T16:30:52.452Z,3.75
2022-07-29T16:33:20.926Z,4.47
2022-07-29T16:35:49.428Z,4.70
2022-07-29T16:38:17.982Z,3.95
2022-07-29T16:40:46.489Z,4.13
2022-07-29T16:43:15.023Z,4.20
2022-07-29T16:45:46.153Z,3.78
2022-07-29T16:48:15.241Z,5.13
2022-07-29T16:50:46.750Z,8.20
2022-07-29T16:53:15.214Z,4.25
2022-07-29T16:55:43.784Z,4.22
2022-07-29T16:58:13.773Z,4.25
2022-07-29T17:00:42.529Z,4.30
2022-07-29T17:03:13.448Z,3.83
2022-07-29T17:05:52.803Z,5.35
2022-07-29T17:08:23.159Z,4.20
2022-07-29T17:10:51.807Z,4.07
2022-07-29T17:13:21.364Z,4.55
2022-07-29T17:15:49.931Z,4.57
2022-07-29T17:18:19.840Z,4.38
2022-07-29T17:20:48.269Z,4.53
2022-07-29T17:23:16.765Z,5.28
2022-07-29T17:25:45.195Z,5.03
2022-07-29T17:28:13.719Z,5.18
2022-07-29T17:30:42.239Z,5.15
2022-07-29T17:33:10.769Z,5.78
2022-07-29T17:35:57.978Z,5.07
2022-07-29T17:38:27.359Z,5.43
2022-07-29T17:40:55.834Z,6.88
2022-07-29T17:43:24.337Z,9.38
2022-07-29T17:45:55.865Z,5.70
2022-07-29T17:48:28.135Z,4.65
2022-07-29T17:50:58.122Z,5.43
2022-07-29T17:53:26.660Z,5.40
2022-07-29T17:55:56.426Z,4.57
2022-07-29T17:58:25.045Z,5.10
2022-07-29T18:00:53.726Z,10.13
2022-07-29T18:03:22.305Z,5.53
2022-07-29T18:05:51.089Z,5.05
2022-07-29T18:08:22.618Z,5.80
2022-07-29T18:10:51.756Z,5.30
2022-07-29T18:13:20.362Z,5.82
2022-07-29T18:15:49.198Z,5.47
2022-07-29T18:18:18.400Z,6.22
2022-07-29T18:20:47.149Z,5.43
2022-07-29T18:23:16.864Z,5.93
2022-07-29T18:25:46.802Z,8.45
2022-07-29T18:28:15.223Z,7.15
2022-07-29T18:30:45.058Z,7.72
2022-07-29T18:33:24.287Z,6.57
2022-07-29T18:36:04.220Z,7.35
2022-07-29T18:38:39.819Z,6.32
2022-07-29T18:41:09.710Z,6.93
2022-07-29T18:43:38.293Z,6.10
2022-07-29T18:46:06.871Z,7.15
2022-07-29T18:48:35.700Z,5.63
2022-07-29T18:51:09.332Z,6.88
2022-07-29T18:53:38.419Z,7.18
2022-07-29T18:56:06.998Z,6.10
2022-07-29T18:58:38.298Z,7.07
2022-07-29T19:01:07.073Z,5.65
2022-07-29T19:03:35.637Z,7.45
2022-07-29T19:06:05.600Z,7.20
2022-07-29T19:08:37.825Z,6.63
2022-07-29T19:11:06.910Z,7.93
2022-07-29T19:13:37.512Z,7.55
2022-07-29T19:16:06.683Z,8.48
2022-07-29T19:18:35.608Z,8.35
2022-07-29T19:21:04.149Z,8.30
2022-07-29T19:24:00.660Z,9.80
2022-07-29T19:26:22.359Z,8.88
2022-07-29T19:28:52.403Z,7.93
2022-07-29T19:31:20.965Z,9.25
2022-07-29T19:33:49.451Z,8.95
2022-07-29T19:36:17.930Z,10.38
2022-07-29T19:38:46.379Z,9.40
2022-07-29T19:41:17.055Z,10.57
2022-07-29T19:43:50.452Z,9.73
2022-07-29T19:46:22.940Z,10.10
2022-07-29T19:48:52.984Z,8.57
2022-07-29T19:51:21.443Z,8.10
2022-07-29T19:53:49.983Z,8.20
2022-07-29T19:56:18.485Z,8.25
2022-07-29T19:58:47.952Z,7.78
2022-07-29T20:01:17.068Z,8.68
2022-07-29T20:03:47.101Z,8.10
2022-07-29T20:06:15.575Z,7.53
2022-07-29T20:08:45.259Z,7.07
2022-07-29T20:11:13.820Z,9.57
2022-07-29T20:13:42.253Z,7.22
2022-07-29T20:16:10.829Z,8.48
2022-07-29T20:18:39.424Z,8.02
2022-07-29T20:21:09.388Z,9.20
2022-07-29T20:23:37.851Z,8.60
2022-07-29T20:26:09.513Z,13.10
2022-07-29T20:28:40.301Z,10.15
2022-07-29T20:31:09.160Z,8.88
2022-07-29T20:33:37.859Z,15.90
2022-07-29T20:36:08.371Z,7.53
2022-07-29T20:38:36.941Z,7.53
2022-07-29T20:41:05.937Z,15.75
2022-07-29T20:43:38.933Z,5.75
2022-07-29T20:46:07.923Z,6.47
2022-07-29T20:48:36.433Z,7.07
2022-07-29T20:51:04.936Z,7.63
2022-07-29T20:53:34.899Z,6.40
2022-07-29T20:56:03.378Z,6.00
2022-07-29T20:58:32.734Z,11.77
2022-07-29T21:01:01.620Z,8.03
2022-07-29T21:03:30.095Z,6.22
2022-07-29T21:05:58.715Z,7.17
2022-07-29T21:08:27.621Z,6.20
2022-07-29T21:10:57.777Z,6.47
2022-07-29T21:13:26.626Z,6.93
2022-07-29T21:15:59.070Z,6.00
2022-07-29T21:18:32.569Z,6.20
2022-07-29T21:21:02.271Z,6.83
2022-07-29T21:23:31.276Z,8.40
2022-07-29T21:26:01.232Z,6.40
2022-07-29T21:28:30.518Z,5.53
2022-07-29T21:31:01.061Z,7.60
2022-07-29T21:33:31.007Z,6.50
2022-07-29T21:36:15.355Z,7.07
2022-07-29T21:38:48.075Z,6.57
2022-07-29T21:41:17.939Z,5.30
2022-07-29T21:43:46.408Z,4.87
2022-07-29T21:46:17.003Z,6.00
2022-07-29T21:48:45.586Z,5.80
2022-07-29T21:51:14.129Z,8.77
2022-07-29T21:53:43.528Z,5.70
2022-07-29T21:56:14.545Z,5.03
2022-07-29T21:58:45.114Z,5.10
2022-07-29T22:01:13.606Z,5.97
2022-07-29T22:03:42.065Z,6.87
2022-07-29T22:06:11.376Z,6.30
2022-07-29T22:08:48.022Z,5.40
2022-07-29T22:11:16.844Z,6.13
2022-07-29T22:13:46.690Z,5.23
2022-07-29T22:16:15.361Z,7.87
2022-07-29T22:18:46.956Z,7.00
2022-07-29T22:21:15.968Z,10.37
2022-07-29T22:23:44.650Z,9.73
2022-07-29T22:26:13.217Z,6.30
2022-07-29T22:28:41.634Z,9.70
2022-07-29T22:31:12.281Z,4.40
2022-07-29T22:33:40.884Z,5.10
2022-07-29T22:36:09.598Z,4.97
2022-07-29T22:38:38.093Z,5.23
2022-07-29T22:41:06.551Z,4.53
2022-07-29T22:43:35.183Z,4.87
2022-07-29T22:46:03.749Z,4.83
2022-07-29T22:48:33.872Z,6.10
2022-07-29T22:51:02.385Z,4.60
2022-07-29T22:53:30.864Z,4.83
2022-07-29T22:55:59.408Z,7.27
2022-07-29T22:58:27.932Z,6.77
2022-07-29T23:00:56.428Z,4.87
2022-07-29T23:03:25.017Z,4.10
2022-07-29T23:05:54.944Z,4.50
2022-07-29T23:08:23.377Z,3.93
2022-07-29T23:10:51.834Z,6.43
2022-07-29T23:13:20.290Z,6.83
2022-07-29T23:15:48.742Z,4.03
2022-07-29T23:18:17.184Z,3.90
2022-07-29T23:20:46.090Z,5.93
2022-07-29T23:23:15.929Z,5.03
2022-07-29T23:25:44.689Z,4.37
2022-07-29T23:28:14.391Z,4.50
2022-07-29T23:30:42.920Z,4.77
2022-07-29T23:33:11.482Z,4.10
2022-07-29T23:35:39.947Z,4.23
2022-07-29T23:38:08.418Z,3.50
2022-07-29T23:40:38.383Z,3.47
2022-07-29T23:43:08.877Z,3.67
2022-07-29T23:45:42.796Z,4.00
2022-07-29T23:48:14.635Z,4.83
2022-07-29T23:50:43.301Z,4.33
2022-07-29T23:53:12.324Z,4.50
2022-07-29T23:55:42.231Z,3.30
2022-07-29T23:58:10.780Z,4.00
